Time;durP1;ratioP1;P1;durP2;ratioP2;P2;SDS_P1;SDS_P2;PMS_P1;PMS_P2;Temp;Humidity;BMP_temperature;BMP_pressure;BME280_temperature;BME280_humidity;BME280_pressure;Samples;Min_cycle;Max_cycle;Signal;HPM_P1;HPM_P2
2024/02/13 00:00:29;;;;;;;2.97;1.95;;;12.30;89.80;;;;;;6308321;22;20025;-79
2024/02/13 00:02:55;;;;;;;4.07;2.15;;;12.40;89.90;;;;;;6308590;22;19991;-80
2024/02/13 00:05:20;;;;;;;3.08;1.95;;;12.30;89.80;;;;;;6308792;22;19988;-81
2024/02/13 00:07:46;;;;;;;4.20;2.30;;;12.30;89.80;;;;;;6309084;22;19990;-80
2024/02/13 00:10:14;;;;;;;3.83;2.13;;;12.30;89.80;;;;;;6309051;22;20003;-80
2024/02/13 00:12:41;;;;;;;3.70;2.03;;;12.30;89.90;;;;;;6308818;22;19988;-79
2024/02/13 00:15:10;;;;;;;3.95;2.20;;;12.20;89.80;;;;;;6308582;22;20014;-82
2024/02/13 00:17:44;;;;;;;3.53;2.10;;;12.30;89.80;;;;;;6336017;22;20018;-80
2024/02/13 00:20:10;;;;;;;3.33;1.90;;;12.30;89.80;;;;;;6336761;22;20011;-80
2024/02/13 00:22:49;;;;;;;3.83;2.35;;;12.30;89.80;;;;;;6310249;22;19991;-80
2024/02/13 00:25:30;;;;;;;3.13;2.00;;;12.30;89.80;;;;;;6336860;22;20039;-81
2024/02/13 00:27:56;;;;;;;3.67;2.20;;;12.40;89.90;;;;;;6310772;22;20062;-80
2024/02/13 00:30:21;;;;;;;3.10;1.90;;;12.40;89.90;;;;;;6310885;22;19987;-80
2024/02/13 00:32:50;;;;;;;3.35;2.08;;;12.30;89.80;;;;;;6310403;22;19987;-80
2024/02/13 00:35:15;;;;;;;3.67;2.00;;;12.30;89.80;;;;;;6336857;22;19999;-80
2024/02/13 00:37:41;;;;;;;3.28;1.92;;;12.30;89.80;;;;;;6310280;22;20083;-81
2024/02/13 00:40:09;;;;;;;3.22;2.10;;;12.30;89.80;;;;;;6310490;22;20078;-80
2024/02/13 00:42:36;;;;;;;4.32;2.10;;;12.30;89.80;;;;;;6310985;22;19994;-80
2024/02/13 00:45:10;;;;;;;3.40;2.13;;;12.40;89.90;;;;;;6310219;22;19995;-80
2024/02/13 00:47:36;;;;;;;3.85;2.05;;;12.20;89.70;;;;;;6336893;22;19980;-80
2024/02/13 00:50:02;;;;;;;3.55;2.10;;;12.40;89.90;;;;;;6310880;22;20018;-80
2024/02/13 00:52:42;;;;;;;3.58;2.10;;;12.30;89.80;;;;;;6310377;22;19987;-80
2024/02/13 00:55:08;;;;;;;3.60;2.20;;;12.30;89.80;;;;;;6309883;22;19987;-80
2024/02/13 00:57:35;;;;;;;3.65;2.13;;;12.90;90.00;;;;;;6310490;22;20051;-80
2024/02/13 01:00:00;;;;;;;3.38;2.05;;;12.30;89.80;;;;;;6335834;22;19996;-80
2024/02/13 01:02:29;;;;;;;2.75;1.83;;;12.30;89.80;;;;;;6309320;22;19998;-80
2024/02/13 01:04:57;;;;;;;4.28;2.47;;;12.30;89.80;;;;;;6309576;22;19991;-80
2024/02/13 01:07:22;;;;;;;3.65;2.05;;;12.30;89.80;;;;;;6309745;22;19996;-80
2024/02/13 01:09:47;;;;;;;3.30;1.95;;;12.20;89.70;;;;;;6309002;22;20007;-81
2024/02/13 01:12:13;;;;;;;3.35;1.90;;;12.30;89.80;;;;;;6308973;22;19988;-80
2024/02/13 01:14:39;;;;;;;3.83;2.10;;;12.30;89.80;;;;;;6309451;22;19998;-80
2024/02/13 01:17:04;;;;;;;3.17;1.80;;;12.30;89.80;;;;;;6335859;22;19988;-80
2024/02/13 01:19:31;;;;;;;3.97;2.33;;;12.30;89.80;;;;;;6308506;22;19998;-80
2024/02/13 01:21:57;;;;;;;3.88;2.22;;;12.30;89.80;;;;;;6309861;22;19984;-80
2024/02/13 01:24:24;;;;;;;3.75;2.00;;;12.30;89.80;;;;;;6310131;22;20021;-80
2024/02/13 01:27:08;;;;;;;3.13;1.90;;;12.30;89.80;;;;;;6335355;22;20003;-80
2024/02/13 01:29:35;;;;;;;3.50;1.80;;;12.30;89.80;;;;;;6309519;22;20009;-80
2024/02/13 01:32:01;;;;;;;4.00;2.10;;;12.30;89.80;;;;;;6334940;22;19999;-79
2024/02/13 01:34:30;;;;;;;3.78;2.10;;;12.30;89.80;;;;;;6336333;22;19990;-80
2024/02/13 01:36:59;;;;;;;3.40;2.13;;;12.30;89.70;;;;;;6305515;22;19995;-81
2024/02/13 01:39:24;;;;;;;3.90;2.30;;;12.30;89.70;;;;;;6304049;22;20039;-79
2024/02/13 01:42:13;;;;;;;3.50;1.92;;;12.30;89.70;;;;;;6278460;22;19992;-79
2024/02/13 01:44:38;;;;;;;2.90;1.83;;;12.30;90.10;;;;;;6277896;22;20011;-81
2024/02/13 01:47:07;;;;;;;3.42;2.10;;;12.30;89.70;;;;;;6279010;22;19991;-80
2024/02/13 01:49:33;;;;;;;3.53;2.00;;;12.30;89.70;;;;;;6278914;22;20047;-80
2024/02/13 01:52:01;;;;;;;3.63;2.17;;;12.30;89.70;;;;;;6278328;22;20018;-80
2024/02/13 01:54:29;;;;;;;3.83;2.08;;;12.30;89.60;;;;;;6278284;22;19992;-80
2024/02/13 01:56:54;;;;;;;3.60;2.10;;;12.30;89.60;;;;;;6279015;22;20023;-80
2024/02/13 01:59:27;;;;;;;3.63;2.03;;;12.30;89.60;;;;;;6278986;22;20431;-80
2024/02/13 02:01:55;;;;;;;3.20;2.10;;;12.30;89.60;;;;;;6278631;22;19995;-80
2024/02/13 02:04:28;;;;;;;3.90;2.13;;;12.20;89.60;;;;;;6278364;22;19988;-80
2024/02/13 02:06:54;;;;;;;4.25;2.30;;;12.20;89.60;;;;;;6278710;22;20018;-80
2024/02/13 02:09:20;;;;;;;4.05;2.40;;;12.30;89.60;;;;;;6305335;22;20013;-81
2024/02/13 02:11:46;;;;;;;3.50;2.03;;;12.30;89.60;;;;;;6303491;22;20008;-80
2024/02/13 02:14:12;;;;;;;3.28;2.17;;;12.30;89.60;;;;;;6304703;22;19980;-80
2024/02/13 02:16:38;;;;;;;3.92;2.00;;;12.20;89.50;;;;;;6279373;22;20018;-81
2024/02/13 02:19:07;;;;;;;3.30;1.95;;;12.30;89.60;;;;;;6278569;22;19995;-80
2024/02/13 02:21:33;;;;;;;4.63;2.20;;;12.30;89.50;;;;;;6277977;22;20003;-80
2024/02/13 02:23:59;;;;;;;2.90;1.85;;;12.30;89.50;;;;;;6278774;22;19980;-80
2024/02/13 02:26:39;;;;;;;3.85;2.10;;;12.30;89.40;;;;;;6277970;22;20004;-80
2024/02/13 02:29:06;;;;;;;5.35;2.38;;;12.30;89.50;;;;;;6305063;22;19992;-80
2024/02/13 02:31:31;;;;;;;3.80;2.10;;;12.30;89.50;;;;;;6304066;22;19991;-80
2024/02/13 02:33:59;;;;;;;4.50;2.47;;;12.30;89.50;;;;;;6278577;22;19991;-80
2024/02/13 02:36:24;;;;;;;3.58;2.30;;;12.20;89.50;;;;;;6278731;22;20030;-80
2024/02/13 02:38:50;;;;;;;3.30;2.00;;;12.20;89.40;;;;;;6277547;22;19996;-80
2024/02/13 02:41:15;;;;;;;3.58;2.30;;;12.20;89.40;;;;;;6277984;22;20016;-80
2024/02/13 02:43:41;;;;;;;3.17;2.20;;;12.40;89.50;;;;;;6278369;22;19990;-81
2024/02/13 02:46:06;;;;;;;4.00;2.22;;;12.20;89.40;;;;;;6304174;22;20033;-80
2024/02/13 02:48:33;;;;;;;3.75;2.30;;;12.20;89.40;;;;;;6278778;22;19984;-80
2024/02/13 02:50:58;;;;;;;4.25;2.47;;;12.30;89.50;;;;;;6304832;22;19990;-81
2024/02/13 02:53:24;;;;;;;3.83;2.50;;;12.30;89.40;;;;;;6277422;22;19983;-80
2024/02/13 02:55:50;;;;;;;3.72;2.30;;;12.30;89.40;;;;;;6303187;22;20115;-81
2024/02/13 02:58:15;;;;;;;3.67;2.10;;;12.20;89.40;;;;;;6277446;22;20015;-80
2024/02/13 03:00:43;;;;;;;3.25;2.08;;;12.30;89.40;;;;;;6278117;22;19996;-80
2024/02/13 03:03:09;;;;;;;3.75;2.25;;;12.30;89.40;;;;;;6303749;22;19988;-80
2024/02/13 03:05:35;;;;;;;4.10;2.45;;;12.30;89.40;;;;;;6278052;22;20022;-80
2024/02/13 03:08:00;;;;;;;4.68;2.60;;;12.30;89.40;;;;;;6303704;22;19995;-80
2024/02/13 03:10:26;;;;;;;4.88;2.40;;;12.30;89.90;;;;;;6304403;22;19995;-79
2024/02/13 03:12:51;;;;;;;4.45;2.40;;;12.20;89.40;;;;;;6274847;22;20018;-80
2024/02/13 03:15:18;;;;;;;4.28;2.30;;;12.30;89.40;;;;;;6304496;22;20004;-80
2024/02/13 03:18:03;;;;;;;5.07;2.72;;;12.30;89.40;;;;;;6294730;22;19984;-80
2024/02/13 03:20:32;;;;;;;4.15;2.20;;;12.20;89.30;;;;;;6278259;22;19996;-80
2024/02/13 03:22:58;;;;;;;4.90;2.50;;;12.30;89.40;;;;;;6304307;22;20010;-79
2024/02/13 03:25:40;;;;;;;3.90;2.30;;;12.20;89.40;;;;;;6304409;22;19988;-80
2024/02/13 03:28:06;;;;;;;3.72;2.30;;;12.20;89.40;;;;;;6278074;22;20000;-80
2024/02/13 03:30:33;;;;;;;4.63;2.42;;;12.30;89.40;;;;;;6304225;22;19999;-79
2024/02/13 03:32:59;;;;;;;3.88;2.40;;;12.20;89.30;;;;;;6277413;22;20031;-79
2024/02/13 03:35:25;;;;;;;4.68;2.65;;;12.30;89.40;;;;;;6277757;22;19992;-80
2024/02/13 03:37:50;;;;;;;4.10;2.35;;;12.30;89.40;;;;;;6278195;22;20002;-80
2024/02/13 03:40:16;;;;;;;4.22;2.63;;;12.30;89.40;;;;;;6304121;22;19999;-80
2024/02/13 03:42:43;;;;;;;4.65;2.63;;;12.30;89.40;;;;;;6278395;22;19988;-80
2024/02/13 03:45:09;;;;;;;3.85;2.40;;;12.20;89.30;;;;;;6303976;22;19995;-80
2024/02/13 03:47:37;;;;;;;4.88;2.58;;;12.20;89.30;;;;;;6277828;22;20006;-80
2024/02/13 03:50:03;;;;;;;4.30;2.53;;;12.20;89.20;;;;;;6277492;22;19992;-80
2024/02/13 03:52:29;;;;;;;4.80;2.47;;;12.30;89.30;;;;;;6303337;22;20092;-79
2024/02/13 03:54:57;;;;;;;5.60;2.92;;;12.20;89.20;;;;;;6280310;22;19991;-80
2024/02/13 03:57:24;;;;;;;5.20;2.70;;;12.20;89.20;;;;;;6280720;22;19980;-80
2024/02/13 03:59:50;;;;;;;5.00;3.05;;;12.20;89.20;;;;;;6279996;22;19996;-80
2024/02/13 04:02:15;;;;;;;4.63;2.80;;;12.20;89.30;;;;;;6279789;22;19988;-80
2024/02/13 04:04:42;;;;;;;4.20;2.58;;;12.30;89.20;;;;;;6279827;22;20011;-80
2024/02/13 04:07:08;;;;;;;5.63;2.95;;;12.20;89.10;;;;;;6280089;22;19991;-80
2024/02/13 04:09:36;;;;;;;5.00;2.75;;;12.30;89.20;;;;;;6306161;22;20043;-80
2024/02/13 04:12:02;;;;;;;4.90;2.97;;;12.20;89.10;;;;;;6279664;22;19988;-80
2024/02/13 04:14:27;;;;;;;5.82;3.20;;;12.20;89.10;;;;;;6280107;22;19991;-79
2024/02/13 04:16:56;;;;;;;4.82;2.90;;;12.30;89.20;;;;;;6279005;22;20000;-81
2024/02/13 04:19:34;;;;;;;5.13;3.13;;;12.20;89.60;;;;;;6325789;22;20011;-80
2024/02/13 04:27:12;;;;;;;6.28;3.47;;;12.20;89.10;;;;;;6325577;22;20075;-80
2024/02/13 04:34:49;;;;;;;5.78;3.65;;;12.20;89.10;;;;;;6306216;22;20004;-78
2024/02/13 04:37:55;;;;;;;6.13;3.30;;;12.20;89.10;;;;;;6283963;22;20023;-80
2024/02/13 04:40:25;;;;;;;5.72;3.55;;;12.20;89.10;;;;;;6306459;22;20043;-80
2024/02/13 04:53:21;;;;;;;6.25;3.65;;;12.20;89.10;;;;;;6324656;22;20027;-80
2024/02/13 04:58:23;;;;;;;6.60;4.10;;;12.20;89.10;;;;;;6305444;22;20006;-79
2024/02/13 05:00:51;;;;;;;6.47;4.00;;;12.50;89.20;;;;;;6264273;22;20019;-80
2024/02/13 05:03:39;;;;;;;7.05;4.45;;;12.20;89.00;;;;;;6261764;22;20003;-78
2024/02/13 05:08:55;;;;;;;10.00;4.82;;;12.20;89.00;;;;;;6306066;22;20011;-79
2024/02/13 05:11:24;;;;;;;9.13;4.70;;;12.20;88.90;;;;;;6279521;22;19996;-79
2024/02/13 05:14:03;;;;;;;8.98;4.93;;;12.00;88.80;;;;;;6280041;22;20000;-80
2024/02/13 05:16:37;;;;;;;13.47;5.10;;;12.10;88.70;;;;;;6282616;22;20316;-78
2024/02/13 05:19:05;;;;;;;11.60;5.80;;;12.20;88.70;;;;;;6277908;22;20023;-78
2024/02/13 05:21:36;;;;;;;8.70;5.30;;;12.20;88.70;;;;;;6279679;22;19995;-80
2024/02/13 05:24:22;;;;;;;9.83;5.30;;;12.20;88.70;;;;;;6279940;22;19988;-81
2024/02/13 05:26:49;;;;;;;10.57;5.03;;;12.10;88.70;;;;;;6305919;22;20218;-80
2024/02/13 05:29:19;;;;;;;8.80;5.80;;;12.20;88.70;;;;;;6277497;22;20018;-84
2024/02/13 05:31:48;;;;;;;10.38;5.13;;;12.20;88.70;;;;;;6306345;22;19993;-80
2024/02/13 05:34:18;;;;;;;10.70;5.13;;;12.20;88.80;;;;;;6306012;22;20011;-81
2024/02/13 05:36:47;;;;;;;8.52;5.75;;;12.10;88.70;;;;;;6278941;22;20031;-80
2024/02/13 05:39:20;;;;;;;10.00;5.65;;;12.10;88.70;;;;;;6306086;22;19999;-81
2024/02/13 05:42:44;;;;;;;8.25;5.13;;;12.20;88.80;;;;;;6306201;22;20030;-81
2024/02/13 05:45:30;;;;;;;8.52;5.45;;;12.20;88.80;;;;;;6305400;22;20031;-80
2024/02/13 05:48:01;;;;;;;9.05;5.00;;;12.20;88.80;;;;;;6278843;22;19988;-80
2024/02/13 05:50:32;;;;;;;8.27;5.40;;;12.10;88.80;;;;;;6279457;22;19991;-78
2024/02/13 05:52:58;;;;;;;8.00;5.38;;;12.20;89.20;;;;;;6279573;22;19988;-80
2024/02/13 05:55:57;;;;;;;8.75;5.30;;;12.30;88.80;;;;;;6278740;22;19994;-80
2024/02/13 05:58:39;;;;;;;9.43;5.50;;;12.20;88.80;;;;;;6279228;22;20011;-78
2024/02/13 06:01:12;;;;;;;8.23;5.25;;;12.10;88.80;;;;;;6279608;22;20015;-79
2024/02/13 06:03:57;;;;;;;8.07;5.07;;;12.20;88.80;;;;;;6243593;23;20056;-79
2024/02/13 06:06:38;;;;;;;8.43;5.32;;;12.20;88.90;;;;;;6239479;23;19988;-80
2024/02/13 06:09:32;;;;;;;8.10;5.38;;;12.20;88.90;;;;;;6242360;23;19985;-81
2024/02/13 06:11:59;;;;;;;7.95;5.40;;;12.20;88.90;;;;;;6218267;23;19993;-80
2024/02/13 06:14:30;;;;;;;8.85;5.30;;;12.20;88.90;;;;;;6302503;22;19984;-80
2024/02/13 06:16:59;;;;;;;8.10;5.32;;;12.20;88.90;;;;;;6279069;22;20018;-80
2024/02/13 06:19:26;;;;;;;8.25;5.38;;;12.20;88.90;;;;;;6273030;22;19988;-80
2024/02/13 06:22:13;;;;;;;9.10;5.25;;;12.80;89.20;;;;;;6304595;22;20004;-80
2024/02/13 06:24:54;;;;;;;10.30;5.72;;;12.20;89.00;;;;;;6262789;22;19995;-80
2024/02/13 06:27:21;;;;;;;7.75;5.10;;;12.20;88.90;;;;;;6278849;22;19992;-79
2024/02/13 06:30:23;;;;;;;7.00;4.85;;;12.20;88.90;;;;;;6278430;22;20043;-79
2024/02/13 06:32:50;;;;;;;8.55;5.50;;;12.20;88.90;;;;;;6260891;22;20067;-79
2024/02/13 06:35:18;;;;;;;8.07;4.97;;;12.10;88.80;;;;;;6278782;22;20037;-80
2024/02/13 06:37:47;;;;;;;8.55;5.60;;;12.20;88.90;;;;;;6221672;22;20022;-79
2024/02/13 06:40:15;;;;;;;7.93;5.13;;;12.20;88.90;;;;;;6278198;22;20020;-80
2024/02/13 06:42:41;;;;;;;8.75;5.65;;;12.20;89.00;;;;;;6254274;22;19988;-81
2024/02/13 06:45:48;;;;;;;7.55;5.00;;;12.20;89.00;;;;;;6292924;22;20020;-80
2024/02/13 06:48:21;;;;;;;8.65;5.40;;;12.20;88.90;;;;;;6305159;22;20008;-80
2024/02/13 06:50:49;;;;;;;8.38;5.10;;;12.10;88.80;;;;;;6254313;22;19991;-79
2024/02/13 06:53:36;;;;;;;8.48;5.50;;;12.20;88.90;;;;;;6252110;22;19999;-80
2024/02/13 06:56:53;;;;;;;8.38;5.63;;;12.10;88.80;;;;;;6221613;22;20012;-81
2024/02/13 06:59:19;;;;;;;8.43;5.50;;;12.10;88.80;;;;;;6246387;22;20043;-80
2024/02/13 07:01:48;;;;;;;8.43;5.53;;;12.20;88.90;;;;;;6247155;22;20071;-80
2024/02/13 07:04:15;;;;;;;7.80;5.38;;;12.20;88.90;;;;;;6247817;22;20059;-80
2024/02/13 07:06:46;;;;;;;7.85;4.97;;;12.10;88.80;;;;;;6242059;22;20012;-80
2024/02/13 07:09:23;;;;;;;8.90;5.10;;;12.30;88.90;;;;;;6273340;22;20030;-78
2024/02/13 07:11:53;;;;;;;8.27;5.28;;;12.10;88.80;;;;;;6279354;22;19987;-80
2024/02/13 07:14:31;;;;;;;9.05;4.97;;;12.00;88.70;;;;;;6274532;22;20015;-81
2024/02/13 07:16:57;;;;;;;7.68;5.20;;;12.10;88.80;;;;;;6277743;22;20004;-80
2024/02/13 07:19:25;;;;;;;7.05;5.20;;;12.10;88.80;;;;;;6305063;22;20015;-81
2024/02/13 07:22:15;;;;;;;7.57;4.82;;;12.20;88.80;;;;;;6303973;22;20039;-79
2024/02/13 07:24:44;;;;;;;8.55;5.88;;;12.10;88.80;;;;;;6278520;22;19999;-80
2024/02/13 07:27:13;;;;;;;8.93;5.40;;;12.40;88.90;;;;;;6304648;22;19991;-80
2024/02/13 07:30:26;;;;;;;9.73;5.80;;;12.10;88.70;;;;;;6274686;22;20059;-80
2024/02/13 07:32:58;;;;;;;7.95;4.80;;;12.20;88.80;;;;;;6278818;22;19988;-79
2024/02/13 07:35:29;;;;;;;8.27;5.57;;;12.10;88.80;;;;;;6302187;22;20011;-80
2024/02/13 07:37:58;;;;;;;7.10;5.13;;;12.20;89.40;;;;;;6304980;22;20010;-80
2024/02/13 07:40:28;;;;;;;10.52;5.55;;;12.10;88.80;;;;;;6278545;22;20007;-80
2024/02/13 07:42:54;;;;;;;8.75;5.63;;;12.10;88.80;;;;;;6305223;22;19988;-80
2024/02/13 07:45:25;;;;;;;9.30;5.60;;;12.20;88.90;;;;;;6296126;22;20048;-79
2024/02/13 07:47:52;;;;;;;9.10;5.63;;;12.20;88.90;;;;;;6305324;22;20015;-81
2024/02/13 07:50:18;;;;;;;7.57;5.30;;;12.10;88.80;;;;;;6278239;22;19991;-81
2024/02/13 07:53:40;;;;;;;8.25;5.55;;;12.50;89.00;;;;;;6242635;23;20004;-81
2024/02/13 07:56:10;;;;;;;8.13;5.30;;;12.20;88.90;;;;;;6272402;22;19992;-79
2024/02/13 07:58:58;;;;;;;8.57;5.65;;;12.20;88.90;;;;;;6304084;22;19996;-80
2024/02/13 08:01:29;;;;;;;8.10;5.57;;;12.10;88.80;;;;;;6252725;22;20042;-80
2024/02/13 08:03:58;;;;;;;7.78;5.40;;;12.10;88.90;;;;;;6252825;22;19995;-79
2024/02/13 08:06:25;;;;;;;8.20;5.47;;;12.10;88.90;;;;;;6274706;22;20008;-79
2024/02/13 08:09:14;;;;;;;8.13;5.82;;;12.20;89.00;;;;;;6273059;22;19988;-79
2024/02/13 08:11:42;;;;;;;7.63;5.05;;;12.10;88.80;;;;;;6217215;22;20068;-80
2024/02/13 08:14:37;;;;;;;7.90;4.97;;;12.20;88.90;;;;;;6212556;23;19993;-80
2024/02/13 08:17:10;;;;;;;8.25;5.38;;;12.20;88.90;;;;;;6245006;22;20000;-79
2024/02/13 08:20:13;;;;;;;9.10;5.78;;;12.10;89.20;;;;;;6222279;22;19993;-80
2024/02/13 08:23:07;;;;;;;7.13;4.90;;;12.10;88.70;;;;;;6273124;22;19984;-81
2024/02/13 08:25:35;;;;;;;7.80;5.40;;;12.20;88.80;;;;;;6242736;22;19996;-79
2024/02/13 08:28:04;;;;;;;9.05;5.85;;;12.00;89.10;;;;;;6273263;22;19998;-80
2024/02/13 08:30:48;;;;;;;7.97;5.10;;;12.30;88.70;;;;;;6278330;22;19991;-81
2024/02/13 08:36:24;;;;;;;7.82;5.40;;;12.10;88.60;;;;;;6271995;22;20002;-79
2024/02/13 08:39:11;;;;;;;8.07;5.65;;;12.00;88.20;;;;;;6221766;23;19989;-80
2024/02/13 08:42:01;;;;;;;8.48;5.47;;;12.20;88.60;;;;;;6287667;22;20007;-79
2024/02/13 08:44:34;;;;;;;9.05;5.63;;;12.10;88.50;;;;;;6280060;22;19984;-79
2024/02/13 08:47:20;;;;;;;9.32;5.65;;;12.10;88.40;;;;;;6284034;22;20002;-79
2024/02/13 08:49:50;;;;;;;7.85;5.68;;;12.20;88.40;;;;;;6306526;22;19984;-79
2024/02/13 08:52:18;;;;;;;9.60;6.00;;;12.20;88.40;;;;;;6255037;22;20007;-80
2024/02/13 08:54:46;;;;;;;9.27;5.63;;;12.10;88.40;;;;;;6279598;22;19991;-80
2024/02/13 08:57:14;;;;;;;8.82;6.00;;;13.20;89.00;;;;;;6209526;23;20020;-79
2024/02/13 08:59:45;;;;;;;8.55;5.80;;;12.20;88.50;;;;;;6256768;22;20019;-79
2024/02/13 09:02:51;;;;;;;9.07;5.97;;;12.20;88.40;;;;;;6243998;23;19996;-79
2024/02/13 09:05:19;;;;;;;8.35;5.82;;;12.10;88.50;;;;;;6240022;23;20004;-80
2024/02/13 09:07:46;;;;;;;8.95;6.40;;;12.20;88.40;;;;;;6254769;22;19995;-80
2024/02/13 09:10:33;;;;;;;8.35;5.93;;;13.00;88.80;;;;;;6253763;22;20003;-80
2024/02/13 09:13:36;;;;;;;8.65;5.88;;;12.10;88.40;;;;;;6303271;22;19996;-80
2024/02/13 09:16:03;;;;;;;7.40;5.72;;;12.20;88.50;;;;;;6265423;22;20052;-80
2024/02/13 09:18:30;;;;;;;8.27;5.50;;;12.30;88.60;;;;;;6306131;22;19991;-80
2024/02/13 09:20:58;;;;;;;7.90;5.63;;;12.00;88.60;;;;;;6279697;22;19999;-80
2024/02/13 09:23:43;;;;;;;8.95;5.88;;;12.20;88.60;;;;;;6302335;22;19988;-79
2024/02/13 09:26:19;;;;;;;9.90;6.20;;;12.30;88.60;;;;;;6279322;22;19992;-80
2024/02/13 09:29:01;;;;;;;8.15;5.72;;;12.20;88.50;;;;;;6279348;22;19999;-80
2024/02/13 09:31:27;;;;;;;9.15;6.10;;;12.20;88.50;;;;;;6305075;22;19987;-80
2024/02/13 09:33:56;;;;;;;8.25;5.38;;;12.20;88.70;;;;;;6253867;22;20017;-80
2024/02/13 09:36:22;;;;;;;8.68;5.88;;;12.20;88.60;;;;;;6279055;22;20008;-79
2024/02/13 09:38:52;;;;;;;8.27;5.32;;;12.60;88.80;;;;;;6305939;22;19998;-80
2024/02/13 09:41:21;;;;;;;8.48;5.65;;;12.20;88.50;;;;;;6279343;22;20047;-80
2024/02/13 09:43:47;;;;;;;7.55;5.57;;;12.10;88.60;;;;;;6279337;22;20047;-80
2024/02/13 09:46:16;;;;;;;7.88;5.35;;;12.30;88.60;;;;;;6279347;22;20012;-80
2024/02/13 09:48:48;;;;;;;9.20;5.93;;;12.20;88.50;;;;;;6278988;22;19988;-80
2024/02/13 09:51:19;;;;;;;8.38;5.50;;;12.10;88.50;;;;;;6278648;22;20027;-80
2024/02/13 09:54:14;;;;;;;8.63;5.90;;;12.20;88.60;;;;;;6229021;22;20003;-80
2024/02/13 09:57:05;;;;;;;8.48;5.93;;;12.20;88.50;;;;;;6270940;22;19988;-80
2024/02/13 09:59:39;;;;;;;9.10;5.85;;;12.20;88.50;;;;;;6279297;22;19988;-80
2024/02/13 10:02:05;;;;;;;8.73;5.90;;;12.70;88.70;;;;;;6278579;22;20071;-79
2024/02/13 10:04:32;;;;;;;7.65;5.45;;;12.20;88.50;;;;;;6279408;22;19995;-79
2024/02/13 10:10:15;;;;;;;8.00;5.65;;;12.20;88.40;;;;;;6301074;22;19994;-78
2024/02/13 10:12:52;;;;;;;8.15;5.45;;;12.20;88.40;;;;;;6279463;22;19992;-80
2024/02/13 10:16:00;;;;;;;7.57;5.10;;;12.30;88.40;;;;;;6278848;22;19988;-80
2024/02/13 10:18:39;;;;;;;7.55;5.43;;;12.30;88.40;;;;;;6305592;22;19990;-80
2024/02/13 10:21:05;;;;;;;8.25;5.88;;;12.40;88.40;;;;;;6278102;22;19996;-80
2024/02/13 10:23:35;;;;;;;8.27;5.25;;;12.30;88.30;;;;;;6305191;22;19984;-80
2024/02/13 10:26:07;;;;;;;7.50;5.15;;;11.90;88.00;;;;;;6278680;22;19999;-82
2024/02/13 10:29:13;;;;;;;8.00;5.60;;;12.30;88.20;;;;;;6305378;22;19984;-80
2024/02/13 10:31:42;;;;;;;7.93;5.10;;;12.40;88.20;;;;;;6278532;22;19988;-79
2024/02/13 10:34:11;;;;;;;7.43;5.50;;;12.40;88.10;;;;;;6304943;22;19991;-79
2024/02/13 10:36:44;;;;;;;7.97;5.03;;;12.40;88.10;;;;;;6279094;22;20010;-79
2024/02/13 10:39:33;;;;;;;8.25;5.45;;;12.40;88.10;;;;;;6300698;22;19994;-79
2024/02/13 10:42:00;;;;;;;7.95;5.45;;;12.30;88.00;;;;;;6230939;22;20011;-79
2024/02/13 10:48:20;;;;;;;7.70;5.20;;;12.40;88.00;;;;;;6335654;22;20055;-80
2024/02/13 10:51:06;;;;;;;8.82;5.35;;;12.40;88.00;;;;;;6336293;22;19983;-80
2024/02/13 10:53:34;;;;;;;8.02;5.22;;;12.40;88.00;;;;;;6336104;22;20014;-81
2024/02/13 10:56:02;;;;;;;7.72;5.35;;;12.50;88.00;;;;;;6309673;22;19987;-81
2024/02/13 10:59:35;;;;;;;8.30;5.38;;;12.30;87.90;;;;;;6252305;22;19993;-80
2024/02/13 11:02:01;;;;;;;7.00;4.85;;;12.40;88.00;;;;;;6245410;22;19996;-79
2024/02/13 11:05:03;;;;;;;8.02;5.28;;;12.40;88.00;;;;;;6247521;22;20023;-80
2024/02/13 11:07:34;;;;;;;7.82;5.30;;;12.40;88.00;;;;;;6253382;22;20070;-79
2024/02/13 11:10:29;;;;;;;8.27;5.00;;;12.40;88.00;;;;;;6248302;22;19992;-79
2024/02/13 11:13:11;;;;;;;7.45;4.95;;;12.40;88.00;;;;;;6271656;22;20000;-79
2024/02/13 11:15:40;;;;;;;7.38;4.95;;;12.50;88.20;;;;;;6247513;22;19993;-80
2024/02/13 11:18:28;;;;;;;7.45;4.88;;;12.40;88.00;;;;;;6272794;22;19996;-79
2024/02/13 11:24:02;;;;;;;7.50;4.88;;;12.50;88.00;;;;;;6212049;23;20028;-80
2024/02/13 11:26:37;;;;;;;7.47;5.10;;;12.40;87.90;;;;;;6187329;23;19989;-80
2024/02/13 11:29:30;;;;;;;6.80;4.72;;;12.30;87.90;;;;;;6251636;22;20032;-80
2024/02/13 11:32:00;;;;;;;7.05;4.65;;;12.40;87.90;;;;;;6272261;22;19989;-79
2024/02/13 11:34:59;;;;;;;8.10;5.00;;;12.40;87.90;;;;;;6248058;22;20031;-82
2024/02/13 11:37:51;;;;;;;7.00;4.50;;;12.40;88.00;;;;;;6248007;22;19993;-81
2024/02/13 11:40:56;;;;;;;6.78;4.47;;;12.30;87.80;;;;;;6273091;22;20000;-81
2024/02/13 11:44:20;;;;;;;6.93;4.85;;;12.40;87.90;;;;;;6241967;22;19996;-80
2024/02/13 11:50:28;;;;;;;7.15;4.43;;;12.50;87.90;;;;;;6272905;22;20011;-80
2024/02/13 11:53:18;;;;;;;7.28;4.75;;;12.50;87.90;;;;;;6243660;22;20001;-80
2024/02/13 11:56:03;;;;;;;7.38;4.65;;;12.50;87.90;;;;;;6269237;22;19988;-81
2024/02/13 11:58:36;;;;;;;7.10;4.55;;;12.50;87.90;;;;;;6323772;22;19987;-79
2024/02/13 12:01:49;;;;;;;7.05;4.47;;;12.50;87.90;;;;;;6273241;22;20020;-81
2024/02/13 12:04:41;;;;;;;6.80;4.43;;;12.90;88.10;;;;;;6273228;22;19988;-80
2024/02/13 12:07:42;;;;;;;6.68;4.30;;;12.40;87.80;;;;;;6272804;22;19984;-80
2024/02/13 12:10:40;;;;;;;7.35;4.60;;;12.50;87.90;;;;;;6247196;22;19995;-80
2024/02/13 12:13:46;;;;;;;5.93;4.00;;;12.50;87.80;;;;;;6241983;22;19995;-80
2024/02/13 12:16:38;;;;;;;6.38;4.13;;;12.50;87.80;;;;;;6273985;22;20031;-80
2024/02/13 12:19:17;;;;;;;6.70;4.10;;;12.50;87.80;;;;;;6275144;22;19985;-80
2024/02/13 12:22:36;;;;;;;6.90;4.07;;;12.50;87.80;;;;;;6175118;23;20033;-80
2024/02/13 12:25:41;;;;;;;6.75;4.03;;;12.50;87.80;;;;;;6214285;23;20216;-80
2024/02/13 12:28:17;;;;;;;6.65;4.40;;;12.60;87.90;;;;;;6214427;23;19989;-79
2024/02/13 12:34:04;;;;;;;7.00;3.80;;;12.70;88.00;;;;;;6274908;22;20054;-80
2024/02/13 12:36:33;;;;;;;6.28;4.07;;;12.50;87.80;;;;;;6252344;22;20012;-80
2024/02/13 12:39:16;;;;;;;6.10;3.90;;;12.50;87.80;;;;;;6302545;22;19990;-80
2024/02/13 12:41:57;;;;;;;6.32;4.20;;;12.50;87.70;;;;;;6282866;22;20003;-79
2024/02/13 12:44:47;;;;;;;6.05;3.88;;;12.50;87.70;;;;;;6274615;22;19992;-80
2024/02/13 12:48:04;;;;;;;6.45;4.07;;;12.50;87.60;;;;;;6284952;22;19992;-81
2024/02/13 12:50:36;;;;;;;7.00;3.83;;;12.50;87.40;;;;;;6279564;22;19988;-80
2024/02/13 12:53:51;;;;;;;5.82;3.45;;;12.60;87.30;;;;;;6306458;22;19987;-81
2024/02/13 12:57:00;;;;;;;5.40;3.40;;;12.60;87.20;;;;;;6279500;22;19990;-79
2024/02/13 12:59:32;;;;;;;5.60;3.38;;;12.60;87.20;;;;;;6279973;22;19991;-80
2024/02/13 13:02:47;;;;;;;6.30;3.60;;;12.60;87.20;;;;;;6274407;22;20008;-80
2024/02/13 13:05:44;;;;;;;5.40;3.28;;;12.60;87.20;;;;;;6289248;22;20017;-81
2024/02/13 13:08:22;;;;;;;6.05;3.75;;;12.60;87.30;;;;;;6279808;22;20043;-80
2024/02/13 13:11:14;;;;;;;5.43;3.30;;;12.60;87.40;;;;;;6306175;22;19996;-80
2024/02/13 13:13:41;;;;;;;6.40;3.75;;;12.50;87.40;;;;;;6279901;22;20016;-80
2024/02/13 13:16:12;;;;;;;5.60;3.47;;;12.50;87.50;;;;;;6305578;22;19998;-80
2024/02/13 13:18:47;;;;;;;6.22;3.60;;;12.50;87.50;;;;;;6305764;22;20010;-79
2024/02/13 13:21:46;;;;;;;5.53;3.40;;;12.50;87.60;;;;;;6280063;22;20025;-81
2024/02/13 13:24:16;;;;;;;5.05;3.13;;;12.50;87.70;;;;;;6280193;22;20013;-80
2024/02/13 13:26:45;;;;;;;;;;;12.40;87.70;;;;;;6188457;23;20015;-80
2024/02/13 13:29:34;;;;;;;5.18;3.15;;;12.50;87.70;;;;;;6210366;23;19888;-79
2024/02/13 13:36:02;;;;;;;5.70;3.17;;;12.50;87.70;;;;;;6153779;23;20082;-81
2024/02/13 13:39:36;;;;;;;5.18;3.25;;;12.60;87.80;;;;;;6095920;23;20003;-80
2024/02/13 13:42:49;;;;;;;5.55;3.13;;;12.30;87.60;;;;;;6095056;23;20018;-81
2024/02/13 13:46:08;;;;;;;6.03;2.95;;;12.60;87.80;;;;;;6071419;23;20033;-80
2024/02/13 13:49:17;;;;;;;9.52;3.45;;;12.50;87.80;;;;;;6114637;23;20006;-81
2024/02/13 13:51:55;;;;;;;5.70;3.00;;;12.50;87.80;;;;;;6149485;23;19998;-80
2024/02/13 13:57:30;;;;;;;5.10;3.05;;;12.50;87.80;;;;;;6066922;23;19896;-81
2024/02/13 14:00:49;;;;;;;5.30;2.88;;;12.40;87.80;;;;;;6124381;23;20073;-80
2024/02/13 14:03:54;;;;;;;4.95;2.92;;;12.50;87.80;;;;;;6160476;23;19989;-80
2024/02/13 14:07:31;;;;;;;4.82;2.80;;;12.50;87.80;;;;;;6154124;23;20014;-81
2024/02/13 14:11:09;;;;;;;5.28;3.17;;;12.50;87.80;;;;;;6095522;23;20019;-81
2024/02/13 14:14:26;;;;;;;5.35;3.00;;;12.40;87.80;;;;;;6037733;23;20093;-81
2024/02/13 14:20:24;;;;;;;10.10;3.15;;;12.50;87.90;;;;;;6095141;23;20059;-79
2024/02/13 14:26:55;;;;;;;5.38;2.78;;;12.50;87.90;;;;;;6066078;23;20002;-81
2024/02/13 14:33:32;;;;;;;5.13;2.70;;;12.40;87.90;;;;;;6009434;23;20016;-80
2024/02/13 14:36:47;;;;;;;3.75;2.28;;;12.40;87.90;;;;;;5981804;23;20001;-80
2024/02/13 14:40:06;;;;;;;4.25;2.40;;;12.40;88.00;;;;;;6037361;23;19992;-80
2024/02/13 14:47:10;;;;;;;3.83;2.40;;;12.30;88.00;;;;;;6123990;23;20017;-80